Time;durP1;ratioP1;P1;durP2;ratioP2;P2;SDS_P1;SDS_P2;PMS_P1;PMS_P2;Temp;Humidity;BMP_temperature;BMP_pressure;BME280_temperature;BME280_humidity;BME280_pressure;Samples;Min_cycle;Max_cycle;Signal;HPM_P1;HPM_P2
2023/04/25 00:02:31;;;;;;;;;15.80;14.60;;;;;17.03;64.32;97563.41;6000364;29;96856;-59
2023/04/25 00:05:37;;;;;;;;;17.00;16.00;;;;;17.01;64.90;97555.53;5999031;29;96856;-59
2023/04/25 00:08:42;;;;;;;;;14.75;14.75;;;;;17.08;63.54;97566.06;5983930;29;96122;-59
2023/04/25 00:11:45;;;;;;;;;12.40;11.40;;;;;16.95;63.27;97564.09;5999430;29;96242;-59
2023/04/25 00:14:51;;;;;;;;;12.00;12.00;;;;;17.03;62.29;97563.41;6001363;29;96323;-59
2023/04/25 00:17:54;;;;;;;;;9.60;9.00;;;;;17.04;61.74;97574.00;5998831;29;96724;-59
2023/04/25 00:20:59;;;;;;;;;6.00;6.00;;;;;16.93;60.84;97574.44;6000642;29;96248;-59
2023/04/25 00:24:02;;;;;;;;;6.25;6.25;;;;;16.80;60.89;97574.09;6000508;29;96412;-59
2023/04/25 00:27:06;;;;;;;;;7.00;7.00;;;;;16.79;60.88;97569.75;6001518;29;96267;-59
2023/04/25 00:30:10;;;;;;;;;6.00;4.50;;;;;16.76;61.01;97588.56;5983983;29;98665;-59
2023/04/25 00:33:13;;;;;;;;;4.75;4.75;;;;;16.67;60.83;97587.59;5982666;29;96642;-58
2023/04/25 00:36:18;;;;;;;;;6.60;6.60;;;;;16.54;60.97;97569.22;5982599;29;97143;-59
2023/04/25 00:39:22;;;;;;;;;5.50;5.00;;;;;16.58;60.98;97586.59;5984074;29;96709;-59
2023/04/25 00:42:26;;;;;;;;;4.00;3.40;;;;;16.51;60.97;97589.69;5983834;29;96264;-60
2023/04/25 00:45:30;;;;;;;;;4.00;4.00;;;;;16.48;61.62;97590.25;5999216;29;96327;-59
2023/04/25 00:48:33;;;;;;;;;4.75;4.75;;;;;16.45;61.50;97588.13;5999530;29;96257;-59
2023/04/25 00:51:38;;;;;;;;;5.00;5.00;;;;;16.30;61.79;97591.00;5968870;29;99508;-59
2023/04/25 00:54:41;;;;;;;;;4.20;4.00;;;;;16.26;61.86;97600.88;6001113;29;96179;-59
2023/04/25 00:57:45;;;;;;;;;5.00;5.00;;;;;16.26;61.74;97590.78;5999461;29;96304;-59
2023/04/25 01:00:50;;;;;;;;;5.00;4.00;;;;;16.27;62.09;97589.66;5983625;29;97115;-59
2023/04/25 01:03:55;;;;;;;;;4.00;4.00;;;;;16.26;62.32;97593.50;6000346;29;96240;-59
2023/04/25 01:07:02;;;;;;;;;7.00;7.00;;;;;16.33;62.19;97591.25;5968635;29;96664;-59
2023/04/25 01:10:07;;;;;;;;;7.00;5.00;;;;;16.20;62.61;97600.09;6000461;29;96289;-59
2023/04/25 01:13:10;;;;;;;;;7.60;7.00;;;;;16.12;62.79;97597.22;5968835;29;98475;-59
2023/04/25 01:16:14;;;;;;;;;8.00;7.00;;;;;16.12;62.52;97603.47;5984044;29;97575;-60
2023/04/25 01:19:18;;;;;;;;;6.00;5.80;;;;;16.07;62.71;97600.81;5975905;29;96301;-60
2023/04/25 01:22:23;;;;;;;;;8.00;8.00;;;;;16.14;62.70;97605.88;5976845;29;96643;-60
2023/04/25 01:25:27;;;;;;;;;7.00;7.00;;;;;16.13;62.78;97604.25;5975546;29;96318;-59
2023/04/25 01:28:31;;;;;;;;;7.40;6.40;;;;;16.09;63.03;97608.66;5975542;29;96354;-59
2023/04/25 01:31:35;;;;;;;;;7.25;7.25;;;;;16.02;62.77;97607.09;5969817;29;96776;-59
2023/04/25 01:34:40;;;;;;;;;10.00;10.00;;;;;16.07;63.13;97600.00;5958459;29;97226;-59
2023/04/25 01:37:46;;;;;;;;;8.33;8.00;;;;;16.04;63.08;97607.59;5990815;29;96324;-59
2023/04/25 01:40:51;;;;;;;;;7.00;7.00;;;;;15.93;63.52;97587.06;5964593;29;98421;-59
2023/04/25 01:43:55;;;;;;;;;8.00;7.00;;;;;16.13;63.17;97607.78;5981582;29;96294;-59
2023/04/25 01:46:59;;;;;;;;;8.00;7.25;;;;;16.11;63.14;97607.28;5980971;29;96236;-60
2023/04/25 01:50:05;;;;;;;;;8.00;7.00;;;;;16.12;62.75;97606.19;5978634;29;96280;-58
2023/04/25 01:53:10;;;;;;;;;7.00;7.00;;;;;16.09;63.09;97611.38;5966931;29;96677;-59
2023/04/25 01:56:14;;;;;;;;;8.00;7.60;;;;;16.09;62.92;97614.09;5980229;29;96327;-59
2023/04/25 01:59:17;;;;;;;;;9.00;8.00;;;;;16.07;62.96;97616.28;5980944;29;96344;-59
2023/04/25 02:02:41;;;;;;;;;9.80;8.00;;;;;16.09;63.05;97616.81;5994769;29;96635;-59
2023/04/25 02:06:00;;;;;;;;;9.00;8.50;;;;;16.14;62.71;97620.28;5967320;29;98354;-59
2023/04/25 02:09:07;;;;;;;;;10.00;9.00;;;;;16.19;62.73;97622.13;5981206;29;96276;-59
2023/04/25 02:12:15;;;;;;;;;9.00;8.80;;;;;16.14;62.55;97623.00;5966048;29;99106;-59
2023/04/25 02:15:30;;;;;;;;;9.80;9.00;;;;;16.09;62.67;97616.81;5980134;29;98895;-59
2023/04/25 02:18:45;;;;;;;;;10.00;10.00;;;;;16.03;62.77;97621.47;5982742;29;96846;-59
2023/04/25 02:21:48;;;;;;;;;10.00;10.00;;;;;15.99;62.53;97612.28;5998541;29;96285;-59
2023/04/25 02:24:54;;;;;;;;;10.75;9.00;;;;;16.10;62.59;97626.59;5997101;29;96266;-59
2023/04/25 02:27:58;;;;;;;;;10.00;9.60;;;;;16.01;62.89;97620.97;5958827;29;96675;-59
2023/04/25 02:31:01;;;;;;;;;10.00;8.00;;;;;16.02;62.68;97626.13;5973660;29;97060;-59
2023/04/25 02:34:06;;;;;;;;;9.00;9.00;;;;;16.01;62.75;97629.13;5998508;29;96297;-59
2023/04/25 02:37:12;;;;;;;;;9.25;8.00;;;;;16.03;62.82;97629.63;5982146;29;96887;-58
2023/04/25 02:40:16;;;;;;;;;8.40;8.40;;;;;15.98;62.68;97629.69;5997087;29;97416;-60
2023/04/25 02:43:20;;;;;;;;;5.25;5.25;;;;;15.99;62.24;97625.88;5973954;29;96302;-59
2023/04/25 02:46:24;;;;;;;;;9.60;9.60;;;;;16.02;62.04;97634.28;5976568;29;96789;-60
2023/04/25 02:49:41;;;;;;;;;7.00;7.00;;;;;16.08;61.95;97626.88;5959738;29;96404;-59
2023/04/25 02:52:45;;;;;;;;;6.80;6.80;;;;;16.10;61.59;97621.16;5958174;29;96240;-59
2023/04/25 02:55:54;;;;;;;;;10.40;10.40;;;;;16.08;61.48;97623.38;5958108;29;96348;-59
2023/04/25 02:58:57;;;;;;;;;8.00;6.40;;;;;16.12;61.43;97619.78;5972257;29;96240;-59
2023/04/25 03:02:01;;;;;;;;;7.40;7.40;;;;;16.13;61.81;97613.22;5966724;29;96428;-59
2023/04/25 03:05:05;;;;;;;;;7.20;7.20;;;;;16.12;61.76;97613.53;5978560;29;96360;-59
2023/04/25 03:08:09;;;;;;;;;9.00;8.00;;;;;16.06;62.11;97617.38;5979356;29;96926;-60
2023/04/25 03:11:15;;;;;;;;;11.00;10.00;;;;;16.07;62.21;97613.56;5979236;29;96654;-59
2023/04/25 03:14:19;;;;;;;;;12.00;12.00;;;;;16.10;62.44;97605.66;5979253;29;96322;-59
2023/04/25 03:17:22;;;;;;;;;13.00;12.00;;;;;16.08;62.57;97607.06;5966795;29;98653;-59
2023/04/25 03:20:25;;;;;;;;;14.00;12.40;;;;;16.14;62.49;97606.69;5965329;29;96638;-59
2023/04/25 03:23:29;;;;;;;;;12.80;11.80;;;;;16.12;62.79;97610.81;5981970;29;96949;-59
2023/04/25 03:26:33;;;;;;;;;14.50;12.50;;;;;16.15;62.66;97612.94;5964751;29;99021;-60
2023/04/25 03:29:37;;;;;;;;;13.75;12.75;;;;;16.12;62.91;97611.63;5989274;29;96217;-60
2023/04/25 03:32:41;;;;;;;;;11.50;11.00;;;;;16.15;62.65;97612.94;5956286;29;96475;-59
2023/04/25 03:35:44;;;;;;;;;14.00;13.00;;;;;16.19;62.65;97628.38;5962383;29;96663;-59
2023/04/25 03:38:49;;;;;;;;;11.25;10.25;;;;;16.16;62.55;97637.13;5981246;29;96431;-59
2023/04/25 03:41:54;;;;;;;;;11.20;10.20;;;;;16.09;62.70;97627.69;5963173;29;98523;-59
2023/04/25 03:44:58;;;;;;;;;11.00;11.00;;;;;16.09;62.45;97636.66;5971988;29;99035;-60
2023/04/25 03:48:01;;;;;;;;;11.00;10.20;;;;;16.16;62.15;97639.03;5973611;29;96543;-59
2023/04/25 03:51:05;;;;;;;;;11.00;9.00;;;;;16.04;61.78;97639.41;5963694;29;98564;-59
2023/04/25 03:54:12;;;;;;;;;12.00;11.00;;;;;15.99;61.75;97642.19;5971961;29;98784;-59
2023/04/25 03:57:17;;;;;;;;;12.00;10.00;;;;;15.88;61.51;97643.41;5992301;29;96193;-59
2023/04/25 04:00:20;;;;;;;;;11.80;10.20;;;;;15.84;61.82;97653.19;5997700;29;96380;-59
2023/04/25 04:03:27;;;;;;;;;12.00;11.50;;;;;15.71;62.01;97660.09;5995321;29;96376;-60
2023/04/25 04:06:32;;;;;;;;;11.50;11.00;;;;;15.52;62.28;97656.47;5981907;29;96427;-59
2023/04/25 04:09:43;;;;;;;;;9.40;9.40;;;;;15.48;62.15;97661.63;5982839;29;96481;-60
2023/04/25 04:12:54;;;;;;;;;11.00;10.40;;;;;15.29;63.06;97668.00;5982215;29;96921;-59
2023/04/25 04:15:58;;;;;;;;;13.40;12.00;;;;;15.29;63.20;97666.09;5978624;29;96802;-60
2023/04/25 04:19:01;;;;;;;;;13.00;12.00;;;;;15.25;63.09;97669.66;5974307;29;96354;-60
2023/04/25 04:22:05;;;;;;;;;12.25;11.25;;;;;15.15;63.23;97676.75;5961185;29;96224;-59
2023/04/25 04:25:11;;;;;;;;;15.40;14.00;;;;;15.26;62.95;97682.13;5986944;29;97638;-59
2023/04/25 04:28:45;;;;;;;;;14.33;13.00;;;;;15.26;63.27;97685.66;5982563;29;96353;-59
2023/04/25 04:32:09;;;;;;;;;15.40;13.00;;;;;15.34;63.10;97690.50;5983859;29;96352;-59
2023/04/25 04:35:12;;;;;;;;;12.00;12.00;;;;;15.40;62.57;97689.34;5968231;29;96337;-59
2023/04/25 04:38:16;;;;;;;;;15.00;14.00;;;;;15.28;62.18;97691.63;5998436;29;97627;-60
2023/04/25 04:41:20;;;;;;;;;13.00;12.00;;;;;15.26;61.79;97691.06;5998823;29;96256;-60
2023/04/25 04:44:32;;;;;;;;;12.80;12.80;;;;;15.23;62.01;97694.38;6001107;29;96360;-60
2023/04/25 04:47:45;;;;;;;;;13.00;13.00;;;;;15.15;61.86;97689.50;5995423;29;96692;-60
2023/04/25 04:50:54;;;;;;;;;14.00;14.00;;;;;15.20;62.01;97705.75;5985993;29;97673;-60
2023/04/25 04:54:20;;;;;;;;;16.00;14.00;;;;;15.13;62.57;97699.84;5998173;29;96515;-59
2023/04/25 04:57:44;;;;;;;;;14.00;13.00;;;;;15.18;62.35;97697.94;5989473;29;97098;-60
2023/04/25 05:00:49;;;;;;;;;15.00;14.00;;;;;15.32;62.34;97702.72;5978687;29;96317;-60
2023/04/25 05:04:10;;;;;;;;;15.40;14.40;;;;;15.40;61.83;97702.94;5974282;29;96805;-59
2023/04/25 05:07:33;;;;;;;;;14.40;14.00;;;;;15.47;61.97;97703.44;5997305;29;96767;-59
2023/04/25 05:10:36;;;;;;;;;15.20;14.20;;;;;15.51;61.78;97704.53;5996961;29;96654;-59
2023/04/25 05:14:08;;;;;;;;;15.40;14.40;;;;;15.49;61.86;97712.09;5966307;29;96897;-59
2023/04/25 05:17:24;;;;;;;;;15.00;14.80;;;;;15.53;62.11;97707.78;5990083;29;96229;-59
2023/04/25 05:20:50;;;;;;;;;14.00;14.00;;;;;15.52;61.17;97711.59;5977431;29;97139;-59
2023/04/25 05:24:16;;;;;;;;;13.75;12.75;;;;;15.48;60.99;97713.22;5967246;29;97284;-59
2023/04/25 05:27:38;;;;;;;;;13.75;13.00;;;;;15.58;60.41;97717.81;5986602;29;96224;-59
2023/04/25 05:31:00;;;;;;;;;12.60;12.60;;;;;15.50;59.97;97721.06;5984541;29;96341;-59
2023/04/25 05:34:08;;;;;;;;;12.00;12.00;;;;;15.48;59.32;97720.56;5979924;29;96238;-59
2023/04/25 05:37:27;;;;;;;;;12.00;10.50;;;;;15.41;58.44;97729.00;5957753;29;96743;-60
2023/04/25 05:40:35;;;;;;;;;10.40;10.40;;;;;15.32;58.39;97722.56;5978556;29;96279;-59
2023/04/25 05:43:49;;;;;;;;;11.75;11.00;;;;;15.28;58.62;97728.81;5963040;29;96349;-59
2023/04/25 05:47:07;;;;;;;;;10.00;10.00;;;;;15.31;58.32;97739.13;5994770;29;96184;-58
2023/04/25 05:50:31;;;;;;;;;9.60;9.00;;;;;15.25;58.06;97742.97;5980992;29;96805;-60
2023/04/25 05:53:47;;;;;;;;;10.00;9.80;;;;;15.29;57.88;97741.31;5978292;29;96935;-60
2023/04/25 05:56:50;;;;;;;;;9.50;9.00;;;;;15.21;57.65;97744.59;5978382;29;96864;-59
2023/04/25 05:59:54;;;;;;;;;9.00;8.50;;;;;15.14;57.44;97751.16;5964099;29;96326;-59
2023/04/25 06:03:02;;;;;;;;;6.00;6.00;;;;;15.20;56.65;97753.84;5963191;29;96302;-59
2023/04/25 06:06:07;;;;;;;;;9.20;8.00;;;;;15.17;57.31;97753.31;5978037;29;96246;-59
2023/04/25 06:09:11;;;;;;;;;6.00;5.75;;;;;15.24;56.82;97758.44;5978620;29;96228;-59
2023/04/25 06:12:16;;;;;;;;;6.00;5.00;;;;;15.16;56.29;97757.09;5980675;29;96685;-59
2023/04/25 06:15:21;;;;;;;;;5.00;4.60;;;;;15.30;56.43;97767.34;5985005;29;96466;-59
2023/04/25 06:18:30;;;;;;;;;6.00;6.00;;;;;15.32;56.52;97759.75;5985357;29;96393;-60
2023/04/25 06:21:35;;;;;;;;;6.00;6.00;;;;;15.31;56.37;97771.69;5969654;29;98947;-60
2023/04/25 06:24:38;;;;;;;;;6.20;5.20;;;;;15.39;55.05;97766.50;5983432;29;96873;-59
2023/04/25 06:27:42;;;;;;;;;8.00;7.00;;;;;15.48;55.34;97766.72;6009103;29;96370;-59
2023/04/25 06:30:45;;;;;;;;;5.00;5.00;;;;;15.56;55.59;97771.59;6009902;29;96421;-59
2023/04/25 06:33:54;;;;;;;;;7.00;7.00;;;;;15.64;55.40;97770.22;5995118;29;98441;-59
2023/04/25 06:37:01;;;;;;;;;6.75;6.75;;;;;15.62;55.83;97756.09;5999566;29;96227;-59
2023/04/25 06:40:06;;;;;;;;;7.00;6.75;;;;;15.80;56.05;97769.00;5994726;29;96326;-59
2023/04/25 06:43:10;;;;;;;;;5.40;5.40;;;;;15.88;55.20;97769.19;6006979;29;96484;-60
2023/04/25 06:46:52;;;;;;;;;8.00;7.60;;;;;15.89;54.92;97770.00;6005921;29;96758;-60
2023/04/25 06:49:55;;;;;;;;;6.00;6.00;;;;;15.90;55.36;97774.34;5998783;29;96871;-59
2023/04/25 06:53:01;;;;;;;;;6.00;6.00;;;;;15.97;54.59;97780.31;5983056;29;96455;-59
2023/04/25 06:56:06;;;;;;;;;8.00;7.00;;;;;15.87;52.82;97750.47;5968933;29;99007;-60
2023/04/25 06:59:33;;;;;;;;;7.00;6.00;;;;;16.01;53.55;97770.47;5992574;29;96246;-59
2023/04/25 07:02:38;;;;;;;;;7.00;7.00;;;;;16.07;54.45;97772.06;5983030;29;96283;-60
2023/04/25 07:05:42;;;;;;;;;6.00;5.00;;;;;16.07;54.23;97773.97;5966317;29;96480;-60
2023/04/25 07:08:47;;;;;;;;;4.80;4.80;;;;;15.96;53.12;97773.22;5982975;29;99394;-60
2023/04/25 07:11:51;;;;;;;;;4.00;4.00;;;;;15.98;52.40;97771.84;5991471;29;97051;-59
2023/04/25 07:14:54;;;;;;;;;5.60;4.60;;;;;15.98;51.81;97768.31;5996059;29;96829;-59
2023/04/25 07:17:58;;;;;;;;;5.00;5.00;;;;;15.90;51.58;97777.06;5983544;29;96224;-59
2023/04/25 07:21:02;;;;;;;;;5.00;5.00;;;;;15.87;52.32;97777.66;5983926;29;96266;-59
2023/04/25 07:24:09;;;;;;;;;5.00;5.00;;;;;15.74;52.94;97773.66;5983852;29;96307;-59
2023/04/25 07:27:17;;;;;;;;;5.25;5.00;;;;;15.68;53.54;97782.13;5985725;29;96263;-59
2023/04/25 07:30:47;;;;;;;;;7.00;7.00;;;;;15.75;54.05;97780.72;6002546;29;96279;-59
2023/04/25 07:33:50;;;;;;;;;7.00;7.00;;;;;15.80;53.71;97782.56;6003821;29;96319;-59
2023/04/25 07:36:53;;;;;;;;;8.00;8.00;;;;;16.04;54.52;97772.63;5972369;29;98432;-59
2023/04/25 07:40:00;;;;;;;;;7.40;7.40;;;;;16.25;53.11;97773.28;6003306;29;96332;-59
2023/04/25 07:43:03;;;;;;;;;7.00;7.00;;;;;16.54;52.54;97782.25;5987538;29;96245;-59
2023/04/25 07:46:17;;;;;;;;;5.00;5.00;;;;;16.78;49.52;97785.03;5988510;29;96311;-59
2023/04/25 07:49:21;;;;;;;;;5.00;5.00;;;;;16.80;47.01;97785.56;5980088;29;96229;-59
2023/04/25 07:52:25;;;;;;;;;5.00;5.00;;;;;16.95;47.93;97788.13;5964817;29;96389;-60
2023/04/25 07:55:39;;;;;;;;;5.60;5.00;;;;;16.87;46.97;97791.47;5963505;29;96337;-59
2023/04/25 07:58:49;;;;;;;;;5.50;5.00;;;;;16.78;47.94;97782.31;5964533;29;96245;-59
2023/04/25 08:01:54;;;;;;;;;4.60;4.60;;;;;16.76;48.59;97782.59;5964857;29;96401;-59
2023/04/25 08:04:58;;;;;;;;;6.00;6.00;;;;;16.77;48.67;97789.66;5964568;29;96340;-58
2023/04/25 08:08:02;;;;;;;;;8.00;8.00;;;;;16.71;47.81;97779.91;5977718;29;96315;-59
2023/04/25 08:11:07;;;;;;;;;6.00;5.00;;;;;16.66;48.53;97771.03;5946522;29;96722;-59
2023/04/25 08:14:11;;;;;;;;;4.25;4.25;;;;;16.73;48.35;97785.09;5962617;29;96331;-60
2023/04/25 08:17:16;;;;;;;;;4.00;4.00;;;;;16.81;48.30;97782.53;5979800;29;96329;-59
2023/04/25 08:20:21;;;;;;;;;6.60;5.60;;;;;16.72;48.49;97783.47;5962850;29;96287;-59
2023/04/25 08:23:25;;;;;;;;;7.00;7.00;;;;;16.61;49.04;97781.97;5963569;29;96329;-59
2023/04/25 08:26:41;;;;;;;;;6.60;6.00;;;;;16.41;48.45;97772.06;5964350;29;96493;-59
2023/04/25 08:29:47;;;;;;;;;6.00;6.00;;;;;16.33;49.47;97778.91;5948540;29;99363;-59
2023/04/25 08:32:51;;;;;;;;;5.00;5.00;;;;;16.13;48.91;97762.75;5963468;29;96343;-60
2023/04/25 08:36:04;;;;;;;;;7.20;6.80;;;;;16.24;49.38;97786.06;5964591;29;96372;-59
2023/04/25 08:39:08;;;;;;;;;9.60;9.00;;;;;16.22;49.80;97787.44;5978411;29;96281;-59
2023/04/25 08:42:23;;;;;;;;;10.00;10.00;;;;;16.14;49.75;97790.75;5948877;29;98691;-59
2023/04/25 08:45:28;;;;;;;;;7.00;7.00;;;;;16.09;50.81;97783.44;5948720;29;98490;-59
2023/04/25 08:48:34;;;;;;;;;7.00;7.00;;;;;16.02;50.50;97778.38;5948834;29;98416;-60
2023/04/25 08:51:46;;;;;;;;;6.00;6.00;;;;;15.99;50.99;97784.34;5964461;29;96302;-59
2023/04/25 08:54:54;;;;;;;;;5.00;5.00;;;;;15.99;51.31;97787.06;5964004;29;96628;-60
2023/04/25 08:58:01;;;;;;;;;8.00;7.33;;;;;15.93;51.47;97796.34;5964712;29;96297;-60
2023/04/25 09:01:05;;;;;;;;;7.00;7.00;;;;;15.78;51.12;97776.63;5963609;29;96340;-59
2023/04/25 09:04:16;;;;;;;;;7.00;6.60;;;;;15.71;50.69;97776.13;5963856;29;96403;-60
2023/04/25 09:07:21;;;;;;;;;7.00;7.00;;;;;15.89;50.54;97800.72;5963495;29;96742;-59
2023/04/25 09:10:25;;;;;;;;;7.00;7.00;;;;;15.88;51.45;97804.53;5963517;29;96351;-60
2023/04/25 09:13:33;;;;;;;;;7.25;7.00;;;;;15.98;51.45;97799.03;5963738;29;96242;-60
2023/04/25 09:17:00;;;;;;;;;7.00;6.00;;;;;16.15;51.62;97801.38;5963151;29;96274;-60
2023/04/25 09:20:15;;;;;;;;;8.00;7.00;;;;;16.32;50.96;97803.69;5962754;29;96357;-59
2023/04/25 09:23:20;;;;;;;;;7.00;6.60;;;;;16.35;50.42;97786.78;5963097;29;96533;-60
2023/04/25 09:26:24;;;;;;;;;7.40;7.00;;;;;16.40;49.52;97806.59;5963228;29;96314;-60
2023/04/25 09:29:32;;;;;;;;;7.40;7.00;;;;;16.43;49.53;97808.72;5962412;29;96363;-59
2023/04/25 09:32:36;;;;;;;;;8.00;8.00;;;;;16.39;49.40;97809.59;5947229;29;96937;-60
2023/04/25 09:35:42;;;;;;;;;7.00;7.00;;;;;16.33;49.51;97805.28;5962831;29;96240;-60
2023/04/25 09:38:50;;;;;;;;;7.40;7.00;;;;;16.34;50.11;97809.63;5947420;29;96746;-60
2023/04/25 09:42:00;;;;;;;;;7.00;7.00;;;;;16.16;49.59;97783.97;5962748;29;96273;-59
2023/04/25 09:45:07;;;;;;;;;7.00;6.00;;;;;16.30;48.42;97805.88;5947290;29;98951;-60
2023/04/25 09:48:19;;;;;;;;;8.00;7.00;;;;;16.23;48.70;97792.59;5946939;29;98872;-60
2023/04/25 09:51:27;;;;;;;;;8.60;7.40;;;;;16.33;49.22;97803.38;5975410;29;96199;-60
2023/04/25 09:54:33;;;;;;;;;8.00;8.00;;;;;16.28;49.53;97800.69;5985418;29;96284;-60
2023/04/25 09:57:47;;;;;;;;;10.00;9.00;;;;;16.33;49.26;97795.22;5969882;29;96671;-60
2023/04/25 10:00:53;;;;;;;;;7.00;7.00;;;;;16.42;48.64;97793.50;5982610;29;96829;-60
2023/04/25 10:04:12;;;;;;;;;9.40;9.40;;;;;16.50;47.95;97794.81;5985873;29;96563;-60
2023/04/25 10:07:25;;;;;;;;;7.00;7.00;;;;;16.80;48.25;97802.72;5985519;29;96324;-60
2023/04/25 10:10:32;;;;;;;;;8.40;8.40;;;;;16.98;47.93;97808.50;5985152;29;96511;-60
2023/04/25 10:13:37;;;;;;;;;11.00;11.00;;;;;17.05;47.23;97798.09;5983818;29;98312;-60
2023/04/25 10:16:43;;;;;;;;;8.00;8.00;;;;;17.18;46.23;97806.38;5993840;29;98653;-60
2023/04/25 10:19:47;;;;;;;;;8.00;8.00;;;;;17.23;46.65;97802.78;6001558;29;96249;-60
2023/04/25 10:22:56;;;;;;;;;9.40;9.00;;;;;17.19;46.43;97804.47;6001619;29;98044;-59
2023/04/25 10:26:00;;;;;;;;;8.00;7.00;;;;;17.15;45.41;97804.22;6001830;29;96927;-60
2023/04/25 10:29:04;;;;;;;;;6.00;6.00;;;;;17.33;45.67;97800.75;6001003;29;96255;-60
2023/04/25 10:32:09;;;;;;;;;5.00;5.00;;;;;17.48;43.75;97799.75;6000479;29;96348;-60
2023/04/25 10:35:15;;;;;;;;;7.00;7.00;;;;;17.74;43.96;97792.03;6001084;29;96824;-60
2023/04/25 10:38:19;;;;;;;;;6.00;6.00;;;;;18.02;42.85;97793.00;5984711;29;96458;-59
2023/04/25 10:41:23;;;;;;;;;4.25;4.25;;;;;18.27;42.80;97784.41;5984148;29;98527;-60
2023/04/25 10:44:28;;;;;;;;;6.40;6.00;;;;;18.45;40.96;97789.03;6004807;29;96407;-60
2023/04/25 10:47:37;;;;;;;;;4.00;4.00;;;;;18.71;41.25;97791.34;5977447;29;98381;-60
2023/04/25 10:50:40;;;;;;;;;7.40;7.00;;;;;18.86;39.74;97789.09;5979863;29;96876;-60
2023/04/25 10:53:45;;;;;;;;;6.00;6.00;;;;;18.65;39.39;97779.69;5979645;29;96845;-60
2023/04/25 10:56:51;;;;;;;;;4.75;4.75;;;;;18.71;39.48;97781.22;5990606;29;96440;-59
2023/04/25 10:59:54;;;;;;;;;7.00;7.00;;;;;18.75;39.37;97787.69;5990759;29;96243;-60
2023/04/25 11:03:00;;;;;;;;;6.00;6.00;;;;;18.75;38.68;97779.50;6000608;29;96339;-60
2023/04/25 11:06:08;;;;;;;;;7.00;6.50;;;;;18.86;39.01;97777.41;5993607;29;96435;-60
2023/04/25 11:09:13;;;;;;;;;4.25;4.00;;;;;18.99;39.32;97777.41;5982086;29;97536;-60
2023/04/25 11:12:17;;;;;;;;;7.25;7.25;;;;;19.07;39.63;97773.16;5985531;29;98438;-60
2023/04/25 11:15:21;;;;;;;;;8.00;8.00;;;;;19.20;38.56;97774.28;6001569;29;96129;-60
2023/04/25 11:18:28;;;;;;;;;8.00;7.00;;;;;19.22;39.70;97781.03;5988655;28;96227;-60
2023/04/25 11:21:32;;;;;;;;;8.25;8.25;;;;;19.23;39.52;97779.13;5985139;29;96628;-61
2023/04/25 11:24:37;;;;;;;;;9.00;9.00;;;;;19.23;38.71;97773.66;6000644;29;96447;-59
2023/04/25 11:27:51;;;;;;;;;11.00;10.00;;;;;19.01;37.90;97775.16;5996534;29;96707;-60
2023/04/25 11:30:54;;;;;;;;;7.00;6.40;;;;;19.01;38.50;97769.69;5986769;29;96357;-60
2023/04/25 11:33:59;;;;;;;;;9.00;9.00;;;;;18.84;38.08;97774.16;5964903;29;96332;-60
2023/04/25 11:37:03;;;;;;;;;7.50;7.50;;;;;18.61;38.55;97778.69;5964332;29;97149;-60
2023/04/25 11:40:09;;;;;;;;;8.40;8.40;;;;;18.35;40.33;97775.53;5969037;29;96403;-60
2023/04/25 11:43:12;;;;;;;;;8.20;8.20;;;;;18.03;40.55;97757.22;5975513;29;97069;-60
2023/04/25 11:46:16;;;;;;;;;9.00;9.00;;;;;17.99;41.24;97782.66;5976356;29;96639;-60
2023/04/25 11:49:21;;;;;;;;;10.00;10.00;;;;;17.89;42.56;97783.63;5967348;29;96311;-60
2023/04/25 11:52:25;;;;;;;;;10.00;9.00;;;;;17.81;42.90;97778.03;5975103;29;98345;-60
2023/04/25 11:55:31;;;;;;;;;8.00;8.00;;;;;17.64;41.88;97779.34;5974381;29;98290;-60
2023/04/25 11:58:55;;;;;;;;;8.75;8.25;;;;;17.57;41.73;97778.09;5990069;29;96307;-60
2023/04/25 12:02:00;;;;;;;;;8.25;8.00;;;;;17.52;42.64;97784.41;5972053;29;96329;-61
2023/04/25 12:05:08;;;;;;;;;11.00;9.60;;;;;17.48;42.15;97777.13;5934447;29;96705;-61
2023/04/25 12:08:32;;;;;;;;;8.50;8.50;;;;;17.45;42.54;97775.78;5944968;29;96765;-61
2023/04/25 12:11:42;;;;;;;;;7.60;7.60;;;;;17.48;43.50;97775.22;5936377;29;98612;-61
2023/04/25 12:14:48;;;;;;;;;10.00;9.00;;;;;17.46;43.28;97773.88;5965355;29;97500;-61
2023/04/25 12:17:53;;;;;;;;;9.00;8.00;;;;;17.51;43.35;97771.88;5950039;29;96281;-62
2023/04/25 12:20:59;;;;;;;;;9.00;9.00;;;;;17.52;43.07;97775.44;5946342;29;98287;-62
2023/04/25 12:24:12;;;;;;;;;6.80;6.60;;;;;17.44;42.36;97773.38;5941215;29;96243;-61
2023/04/25 12:27:18;;;;;;;;;9.00;8.40;;;;;17.38;42.74;97763.63;5941402;29;96350;-61
2023/04/25 12:30:22;;;;;;;;;8.00;8.00;;;;;17.40;43.44;97778.56;5950948;29;96279;-61
2023/04/25 12:34:09;;;;;;;;;7.50;7.00;;;;;17.42;43.72;97781.00;6304102;27;95959;-62
2023/04/25 12:37:13;;;;;;;;;8.00;7.00;;;;;17.24;42.77;97788.06;6278124;27;96344;-62
2023/04/25 12:40:17;;;;;;;;;7.40;7.00;;;;;17.18;42.76;97783.78;6265071;27;96688;-62
2023/04/25 12:43:21;;;;;;;;;7.00;6.40;;;;;17.17;42.14;97784.88;6283998;27;96978;-62
2023/04/25 12:46:24;;;;;;;;;6.60;6.00;;;;;17.17;43.42;97782.13;6283740;27;96419;-62
2023/04/25 12:49:29;;;;;;;;;6.60;6.60;;;;;17.16;43.56;97784.06;6281546;27;99206;-62
2023/04/25 12:52:32;;;;;;;;;6.00;6.00;;;;;17.16;42.03;97783.25;6267078;27;96781;-62
2023/04/25 12:55:36;;;;;;;;;6.00;6.00;;;;;17.17;41.96;97785.69;6257105;27;96563;-62
2023/04/25 12:58:40;;;;;;;;;11.00;10.25;;;;;17.15;43.26;97782.41;6273797;27;96195;-62
2023/04/25 13:01:44;;;;;;;;;9.75;9.75;;;;;17.12;43.63;97791.19;6282574;27;96288;-62
2023/04/25 13:04:48;;;;;;;;;11.00;11.00;;;;;17.12;43.92;97785.72;6280461;27;98849;-62
2023/04/25 13:07:52;;;;;;;;;8.50;7.50;;;;;17.12;44.05;97791.19;6280588;27;96846;-62
2023/04/25 13:10:55;;;;;;;;;8.00;8.00;;;;;17.10;44.17;97787.97;6282661;27;96787;-62
2023/04/25 13:13:58;;;;;;;;;10.40;10.00;;;;;17.08;43.95;97792.06;6282771;27;96214;-62
2023/04/25 13:17:02;;;;;;;;;10.00;9.60;;;;;17.15;45.91;97790.59;6283052;27;96396;-62
2023/04/25 13:20:09;;;;;;;;;10.00;9.20;;;;;17.14;44.83;97786.28;6281197;27;96266;-62
2023/04/25 13:23:12;;;;;;;;;9.40;9.00;;;;;17.21;44.23;97785.91;6282764;27;96217;-62
2023/04/25 13:26:17;;;;;;;;;9.00;9.00;;;;;17.22;44.50;97777.44;6275060;27;96341;-62
2023/04/25 13:29:20;;;;;;;;;9.00;9.00;;;;;17.26;44.76;97781.19;6268487;27;96220;-62
2023/04/25 13:32:24;;;;;;;;;9.20;8.60;;;;;17.32;43.94;97782.78;6282111;27;96286;-62
2023/04/25 13:35:30;;;;;;;;;12.00;11.40;;;;;17.22;44.10;97773.91;6280845;27;96963;-62
2023/04/25 13:38:33;;;;;;;;;9.00;7.60;;;;;17.25;44.39;97786.97;6280764;27;97550;-62
2023/04/25 13:41:36;;;;;;;;;10.50;9.00;;;;;17.27;44.93;97788.28;6282532;27;96239;-62
2023/04/25 13:44:40;;;;;;;;;10.00;10.00;;;;;17.30;44.89;97784.97;6260061;27;96633;-62
2023/04/25 13:47:43;;;;;;;;;9.20;9.00;;;;;17.38;43.50;97786.25;6252270;27;96238;-62
2023/04/25 13:50:48;;;;;;;;;10.00;10.00;;;;;17.51;43.56;97777.34;6251731;27;96546;-62
2023/04/25 13:53:51;;;;;;;;;12.00;11.00;;;;;17.63;43.17;97780.50;6247713;27;99495;-62
2023/04/25 13:56:58;;;;;;;;;9.75;8.00;;;;;17.73;42.97;97783.06;6238498;27;98303;-62
2023/04/25 14:00:04;;;;;;;;;8.00;8.00;;;;;17.81;43.75;97778.84;6255125;27;96606;-62
2023/04/25 14:03:08;;;;;;;;;10.00;10.00;;;;;17.95;42.50;97787.91;6261572;27;98392;-62
2023/04/25 14:06:13;;;;;;;;;7.00;7.00;;;;;17.95;42.18;97782.47;6266227;27;98704;-62
2023/04/25 14:09:16;;;;;;;;;7.20;7.00;;;;;17.95;41.50;97793.38;6274441;27;98417;-62
2023/04/25 14:12:20;;;;;;;;;9.00;8.60;;;;;17.87;41.41;97776.88;6251079;27;96416;-62
2023/04/25 14:15:23;;;;;;;;;9.00;8.00;;;;;17.86;41.79;97789.69;6251138;27;96964;-62
2023/04/25 14:18:26;;;;;;;;;7.50;7.00;;;;;17.86;42.14;97794.34;6254736;27;96396;-62
2023/04/25 14:21:32;;;;;;;;;7.40;7.00;;;;;17.78;42.15;97787.63;6242030;27;96795;-62
2023/04/25 14:24:36;;;;;;;;;6.20;6.20;;;;;17.59;42.32;97798.50;6260572;27;98062;-62
2023/04/25 14:27:39;;;;;;;;;8.00;7.00;;;;;17.49;43.36;97795.09;6253490;27;96335;-62
2023/04/25 14:30:42;;;;;;;;;11.00;11.00;;;;;17.30;44.31;97803.22;6260284;27;96227;-62
2023/04/25 14:33:46;;;;;;;;;9.60;9.60;;;;;17.12;44.47;97807.53;6263775;27;96413;-62
2023/04/25 14:36:50;;;;;;;;;10.00;10.00;;;;;16.89;45.67;97800.97;6263962;27;96444;-62